sensor_id;sensor_type;location;lat;lon;timestamp;P1;durP1;ratioP1;P2;durP2;ratioP2
30934;SDS011;51033;42.648;23.292;2023-03-21T00:01:51;12.07;;;8.85;;
30934;SDS011;51033;42.648;23.292;2023-03-21T00:04:17;16.70;;;10.32;;
30934;SDS011;51033;42.648;23.292;2023-03-21T00:06:43;19.58;;;11.35;;
30934;SDS011;51033;42.648;23.292;2023-03-21T00:09:08;19.83;;;13.48;;
30934;SDS011;51033;42.648;23.292;2023-03-21T00:11:34;36.08;;;23.33;;
30934;SDS011;51033;42.648;23.292;2023-03-21T00:13:59;34.92;;;21.08;;
30934;SDS011;51033;42.648;23.292;2023-03-21T00:16:26;35.80;;;21.80;;
30934;SDS011;51033;42.648;23.292;2023-03-21T00:18:54;26.75;;;17.80;;
30934;SDS011;51033;42.648;23.292;2023-03-21T00:21:21;39.38;;;25.98;;
30934;SDS011;51033;42.648;23.292;2023-03-21T00:23:52;35.97;;;23.52;;
30934;SDS011;51033;42.648;23.292;2023-03-21T00:26:19;28.55;;;21.05;;
30934;SDS011;51033;42.648;23.292;2023-03-21T00:28:46;33.50;;;20.55;;
30934;SDS011;51033;42.648;23.292;2023-03-21T00:31:12;28.00;;;17.80;;
30934;SDS011;51033;42.648;23.292;2023-03-21T00:33:38;28.55;;;18.65;;
30934;SDS011;51033;42.648;23.292;2023-03-21T00:36:04;25.98;;;16.88;;
30934;SDS011;51033;42.648;23.292;2023-03-21T00:38:30;41.80;;;23.08;;
30934;SDS011;51033;42.648;23.292;2023-03-21T00:40:56;31.85;;;20.13;;
30934;SDS011;51033;42.648;23.292;2023-03-21T00:43:21;33.30;;;20.75;;
30934;SDS011;51033;42.648;23.292;2023-03-21T00:45:48;28.15;;;18.30;;
30934;SDS011;51033;42.648;23.292;2023-03-21T00:48:15;22.95;;;16.40;;
30934;SDS011;51033;42.648;23.292;2023-03-21T00:50:42;32.72;;;17.42;;
30934;SDS011;51033;42.648;23.292;2023-03-21T00:53:10;21.70;;;15.75;;
30934;SDS011;51033;42.648;23.292;2023-03-21T00:55:36;21.92;;;15.43;;
30934;SDS011;51033;42.648;23.292;2023-03-21T00:58:02;23.15;;;16.23;;
30934;SDS011;51033;42.648;23.292;2023-03-21T01:00:29;21.88;;;14.32;;
30934;SDS011;51033;42.648;23.292;2023-03-21T01:02:54;21.48;;;13.63;;
30934;SDS011;51033;42.648;23.292;2023-03-21T01:05:25;22.20;;;13.10;;
30934;SDS011;51033;42.648;23.292;2023-03-21T01:08:11;16.83;;;11.45;;
30934;SDS011;51033;42.648;23.292;2023-03-21T01:10:39;15.50;;;11.55;;
30934;SDS011;51033;42.648;23.292;2023-03-21T01:13:07;20.10;;;11.45;;
30934;SDS011;51033;42.648;23.292;2023-03-21T01:15:34;14.68;;;10.98;;
30934;SDS011;51033;42.648;23.292;2023-03-21T01:18:00;15.60;;;10.45;;
30934;SDS011;51033;42.648;23.292;2023-03-21T01:20:26;16.88;;;8.75;;
30934;SDS011;51033;42.648;23.292;2023-03-21T01:22:51;13.25;;;9.07;;
30934;SDS011;51033;42.648;23.292;2023-03-21T01:25:17;12.45;;;8.55;;
30934;SDS011;51033;42.648;23.292;2023-03-21T01:27:42;12.73;;;9.27;;
30934;SDS011;51033;42.648;23.292;2023-03-21T01:30:08;10.40;;;8.27;;
30934;SDS011;51033;42.648;23.292;2023-03-21T01:32:34;11.05;;;7.72;;
30934;SDS011;51033;42.648;23.292;2023-03-21T01:34:59;12.68;;;8.00;;
30934;SDS011;51033;42.648;23.292;2023-03-21T01:37:24;11.98;;;8.90;;
30934;SDS011;51033;42.648;23.292;2023-03-21T01:39:50;11.02;;;7.40;;
30934;SDS011;51033;42.648;23.292;2023-03-21T01:42:16;11.10;;;7.70;;
30934;SDS011;51033;42.648;23.292;2023-03-21T01:44:54;16.45;;;7.68;;
30934;SDS011;51033;42.648;23.292;2023-03-21T01:47:20;11.75;;;7.72;;
30934;SDS011;51033;42.648;23.292;2023-03-21T01:49:46;9.07;;;7.13;;
30934;SDS011;51033;42.648;23.292;2023-03-21T01:52:20;11.60;;;6.70;;
30934;SDS011;51033;42.648;23.292;2023-03-21T01:54:50;11.75;;;6.82;;
30934;SDS011;51033;42.648;23.292;2023-03-21T01:57:21;11.50;;;7.05;;
30934;SDS011;51033;42.648;23.292;2023-03-21T01:59:56;10.05;;;6.80;;
30934;SDS011;51033;42.648;23.292;2023-03-21T02:02:27;14.30;;;7.28;;
30934;SDS011;51033;42.648;23.292;2023-03-21T02:04:55;11.93;;;8.25;;
30934;SDS011;51033;42.648;23.292;2023-03-21T02:07:31;9.35;;;6.97;;
30934;SDS011;51033;42.648;23.292;2023-03-21T02:09:59;11.48;;;7.18;;
30934;SDS011;51033;42.648;23.292;2023-03-21T02:12:29;10.30;;;7.55;;
30934;SDS011;51033;42.648;23.292;2023-03-21T02:14:56;13.20;;;7.75;;
30934;SDS011;51033;42.648;23.292;2023-03-21T02:17:25;12.13;;;8.57;;
30934;SDS011;51033;42.648;23.292;2023-03-21T02:28:27;13.18;;;7.70;;
30934;SDS011;51033;42.648;23.292;2023-03-21T02:37:04;6.38;;;5.07;;
30934;SDS011;51033;42.648;23.292;2023-03-21T02:44:45;11.85;;;5.30;;
30934;SDS011;51033;42.648;23.292;2023-03-21T02:47:43;7.93;;;4.90;;
30934;SDS011;51033;42.648;23.292;2023-03-21T02:50:23;7.13;;;5.28;;
30934;SDS011;51033;42.648;23.292;2023-03-21T02:52:55;8.38;;;4.82;;
30934;SDS011;51033;42.648;23.292;2023-03-21T02:55:26;6.78;;;4.80;;
30934;SDS011;51033;42.648;23.292;2023-03-21T02:57:55;6.88;;;5.13;;
30934;SDS011;51033;42.648;23.292;2023-03-21T03:00:23;7.18;;;4.72;;
30934;SDS011;51033;42.648;23.292;2023-03-21T03:02:51;8.13;;;5.28;;
30934;SDS011;51033;42.648;23.292;2023-03-21T03:05:22;8.02;;;4.93;;
30934;SDS011;51033;42.648;23.292;2023-03-21T03:13:05;8.18;;;5.20;;
30934;SDS011;51033;42.648;23.292;2023-03-21T03:26:25;11.65;;;6.35;;
30934;SDS011;51033;42.648;23.292;2023-03-21T03:28:53;9.55;;;5.80;;
30934;SDS011;51033;42.648;23.292;2023-03-21T03:31:28;10.02;;;6.57;;
30934;SDS011;51033;42.648;23.292;2023-03-21T03:33:58;11.10;;;7.47;;
30934;SDS011;51033;42.648;23.292;2023-03-21T03:36:31;12.13;;;6.90;;
30934;SDS011;51033;42.648;23.292;2023-03-21T03:39:03;11.23;;;7.97;;
30934;SDS011;51033;42.648;23.292;2023-03-21T03:41:33;13.60;;;6.20;;
30934;SDS011;51033;42.648;23.292;2023-03-21T03:44:04;10.27;;;6.15;;
30934;SDS011;51033;42.648;23.292;2023-03-21T03:49:14;12.02;;;6.93;;
30934;SDS011;51033;42.648;23.292;2023-03-21T03:54:23;9.02;;;6.10;;
30934;SDS011;51033;42.648;23.292;2023-03-21T03:56:54;10.20;;;6.57;;
30934;SDS011;51033;42.648;23.292;2023-03-21T03:59:20;10.70;;;7.65;;
30934;SDS011;51033;42.648;23.292;2023-03-21T04:01:49;10.30;;;7.45;;
30934;SDS011;51033;42.648;23.292;2023-03-21T04:04:15;12.18;;;7.72;;
30934;SDS011;51033;42.648;23.292;2023-03-21T04:06:44;10.70;;;6.15;;
30934;SDS011;51033;42.648;23.292;2023-03-21T04:09:15;10.93;;;7.90;;
30934;SDS011;51033;42.648;23.292;2023-03-21T04:11:43;12.93;;;5.93;;
30934;SDS011;51033;42.648;23.292;2023-03-21T04:14:08;11.00;;;6.25;;
30934;SDS011;51033;42.648;23.292;2023-03-21T04:16:34;11.68;;;7.13;;
30934;SDS011;51033;42.648;23.292;2023-03-21T04:18:59;9.98;;;6.85;;
30934;SDS011;51033;42.648;23.292;2023-03-21T04:21:26;9.13;;;6.22;;
30934;SDS011;51033;42.648;23.292;2023-03-21T04:23:53;10.63;;;6.43;;
30934;SDS011;51033;42.648;23.292;2023-03-21T04:26:21;9.10;;;7.00;;
30934;SDS011;51033;42.648;23.292;2023-03-21T04:28:47;7.28;;;5.45;;
30934;SDS011;51033;42.648;23.292;2023-03-21T04:31:13;12.32;;;7.13;;
30934;SDS011;51033;42.648;23.292;2023-03-21T04:33:41;10.50;;;7.20;;
30934;SDS011;51033;42.648;23.292;2023-03-21T04:36:07;11.20;;;6.57;;
30934;SDS011;51033;42.648;23.292;2023-03-21T04:38:33;12.45;;;6.93;;
30934;SDS011;51033;42.648;23.292;2023-03-21T04:40:59;8.63;;;6.35;;
30934;SDS011;51033;42.648;23.292;2023-03-21T04:43:26;6.68;;;4.68;;
30934;SDS011;51033;42.648;23.292;2023-03-21T04:45:52;9.52;;;4.88;;
30934;SDS011;51033;42.648;23.292;2023-03-21T04:48:18;10.02;;;4.95;;
30934;SDS011;51033;42.648;23.292;2023-03-21T04:50:45;7.22;;;5.00;;
30934;SDS011;51033;42.648;23.292;2023-03-21T04:53:11;7.18;;;4.95;;
30934;SDS011;51033;42.648;23.292;2023-03-21T04:55:36;7.45;;;5.35;;
30934;SDS011;51033;42.648;23.292;2023-03-21T04:58:03;6.70;;;5.13;;
30934;SDS011;51033;42.648;23.292;2023-03-21T05:00:28;8.18;;;4.78;;
30934;SDS011;51033;42.648;23.292;2023-03-21T05:02:55;7.85;;;5.07;;
30934;SDS011;51033;42.648;23.292;2023-03-21T05:05:22;10.90;;;5.32;;
30934;SDS011;51033;42.648;23.292;2023-03-21T05:07:48;7.13;;;5.63;;
30934;SDS011;51033;42.648;23.292;2023-03-21T05:10:14;11.43;;;5.32;;
30934;SDS011;51033;42.648;23.292;2023-03-21T05:12:40;7.68;;;5.00;;
30934;SDS011;51033;42.648;23.292;2023-03-21T05:15:06;7.57;;;5.03;;
30934;SDS011;51033;42.648;23.292;2023-03-21T05:17:32;9.35;;;5.85;;
30934;SDS011;51033;42.648;23.292;2023-03-21T05:19:58;10.13;;;6.43;;
30934;SDS011;51033;42.648;23.292;2023-03-21T05:22:23;11.63;;;7.45;;
30934;SDS011;51033;42.648;23.292;2023-03-21T05:24:51;10.25;;;7.20;;
30934;SDS011;51033;42.648;23.292;2023-03-21T05:27:19;15.15;;;7.00;;
30934;SDS011;51033;42.648;23.292;2023-03-21T05:29:59;12.60;;;6.95;;
30934;SDS011;51033;42.648;23.292;2023-03-21T05:32:32;10.33;;;7.10;;
30934;SDS011;51033;42.648;23.292;2023-03-21T05:34:58;11.35;;;7.32;;
30934;SDS011;51033;42.648;23.292;2023-03-21T05:37:23;10.63;;;6.20;;
30934;SDS011;51033;42.648;23.292;2023-03-21T05:39:49;9.70;;;6.50;;
30934;SDS011;51033;42.648;23.292;2023-03-21T05:42:14;8.63;;;6.85;;
30934;SDS011;51033;42.648;23.292;2023-03-21T05:44:40;9.75;;;7.07;;
30934;SDS011;51033;42.648;23.292;2023-03-21T05:47:06;7.35;;;5.72;;
30934;SDS011;51033;42.648;23.292;2023-03-21T05:49:31;11.93;;;7.18;;
30934;SDS011;51033;42.648;23.292;2023-03-21T05:51:56;13.07;;;7.60;;
30934;SDS011;51033;42.648;23.292;2023-03-21T05:54:22;20.98;;;8.63;;
30934;SDS011;51033;42.648;23.292;2023-03-21T05:56:47;14.40;;;9.20;;
30934;SDS011;51033;42.648;23.292;2023-03-21T05:59:13;11.02;;;7.85;;
30934;SDS011;51033;42.648;23.292;2023-03-21T06:01:38;14.13;;;7.85;;
30934;SDS011;51033;42.648;23.292;2023-03-21T06:04:04;13.77;;;7.38;;
30934;SDS011;51033;42.648;23.292;2023-03-21T06:06:29;14.75;;;8.65;;
30934;SDS011;51033;42.648;23.292;2023-03-21T06:08:55;15.60;;;8.23;;
30934;SDS011;51033;42.648;23.292;2023-03-21T06:11:25;15.15;;;8.75;;
30934;SDS011;51033;42.648;23.292;2023-03-21T06:13:55;19.30;;;8.90;;
30934;SDS011;51033;42.648;23.292;2023-03-21T06:16:21;23.55;;;9.98;;
30934;SDS011;51033;42.648;23.292;2023-03-21T06:18:46;21.33;;;10.50;;
30934;SDS011;51033;42.648;23.292;2023-03-21T06:21:12;23.35;;;9.30;;
30934;SDS011;51033;42.648;23.292;2023-03-21T06:23:37;12.73;;;8.27;;
30934;SDS011;51033;42.648;23.292;2023-03-21T06:26:03;14.48;;;7.35;;
30934;SDS011;51033;42.648;23.292;2023-03-21T06:28:29;10.48;;;7.32;;
30934;SDS011;51033;42.648;23.292;2023-03-21T06:30:55;14.48;;;8.43;;
30934;SDS011;51033;42.648;23.292;2023-03-21T06:33:20;14.48;;;9.32;;
30934;SDS011;51033;42.648;23.292;2023-03-21T06:35:52;16.50;;;9.63;;
30934;SDS011;51033;42.648;23.292;2023-03-21T06:38:19;24.52;;;11.88;;
30934;SDS011;51033;42.648;23.292;2023-03-21T06:40:47;21.50;;;11.43;;
30934;SDS011;51033;42.648;23.292;2023-03-21T06:43:13;16.98;;;10.45;;
30934;SDS011;51033;42.648;23.292;2023-03-21T06:45:42;15.20;;;9.68;;
30934;SDS011;51033;42.648;23.292;2023-03-21T06:48:08;25.17;;;11.90;;
30934;SDS011;51033;42.648;23.292;2023-03-21T06:50:34;21.23;;;12.07;;
30934;SDS011;51033;42.648;23.292;2023-03-21T06:53:00;24.55;;;13.20;;
30934;SDS011;51033;42.648;23.292;2023-03-21T06:55:26;24.88;;;12.23;;
30934;SDS011;51033;42.648;23.292;2023-03-21T06:57:53;19.73;;;11.95;;
30934;SDS011;51033;42.648;23.292;2023-03-21T07:00:19;22.25;;;11.48;;
30934;SDS011;51033;42.648;23.292;2023-03-21T07:02:45;22.50;;;12.98;;
30934;SDS011;51033;42.648;23.292;2023-03-21T07:05:11;24.15;;;13.00;;
30934;SDS011;51033;42.648;23.292;2023-03-21T07:07:37;21.98;;;14.45;;
30934;SDS011;51033;42.648;23.292;2023-03-21T07:10:03;25.15;;;13.88;;
30934;SDS011;51033;42.648;23.292;2023-03-21T07:12:29;25.08;;;13.95;;
30934;SDS011;51033;42.648;23.292;2023-03-21T07:14:58;29.67;;;13.52;;
30934;SDS011;51033;42.648;23.292;2023-03-21T07:17:24;24.90;;;13.68;;
30934;SDS011;51033;42.648;23.292;2023-03-21T07:19:50;25.75;;;13.73;;
30934;SDS011;51033;42.648;23.292;2023-03-21T07:22:16;20.80;;;12.75;;
30934;SDS011;51033;42.648;23.292;2023-03-21T07:24:41;19.95;;;11.88;;
30934;SDS011;51033;42.648;23.292;2023-03-21T07:27:06;26.40;;;12.48;;
30934;SDS011;51033;42.648;23.292;2023-03-21T07:29:32;23.25;;;12.90;;
30934;SDS011;51033;42.648;23.292;2023-03-21T07:31:57;19.70;;;11.88;;
30934;SDS011;51033;42.648;23.292;2023-03-21T07:34:23;21.75;;;11.80;;
30934;SDS011;51033;42.648;23.292;2023-03-21T07:36:48;26.58;;;12.38;;
30934;SDS011;51033;42.648;23.292;2023-03-21T07:39:14;18.92;;;11.40;;
30934;SDS011;51033;42.648;23.292;2023-03-21T07:41:39;20.15;;;12.23;;
30934;SDS011;51033;42.648;23.292;2023-03-21T07:44:05;16.13;;;11.93;;
30934;SDS011;51033;42.648;23.292;2023-03-21T07:46:30;20.60;;;12.27;;
30934;SDS011;51033;42.648;23.292;2023-03-21T07:48:56;24.20;;;11.68;;
30934;SDS011;51033;42.648;23.292;2023-03-21T07:51:21;19.58;;;11.60;;
30934;SDS011;51033;42.648;23.292;2023-03-21T07:53:47;24.58;;;12.65;;
30934;SDS011;51033;42.648;23.292;2023-03-21T07:56:12;26.10;;;11.95;;
30934;SDS011;51033;42.648;23.292;2023-03-21T07:58:38;21.45;;;11.50;;
30934;SDS011;51033;42.648;23.292;2023-03-21T08:01:04;21.15;;;11.18;;
30934;SDS011;51033;42.648;23.292;2023-03-21T08:03:29;22.40;;;13.10;;
30934;SDS011;51033;42.648;23.292;2023-03-21T08:05:58;24.75;;;14.15;;
30934;SDS011;51033;42.648;23.292;2023-03-21T08:08:25;23.58;;;13.88;;
30934;SDS011;51033;42.648;23.292;2023-03-21T08:10:51;26.60;;;14.50;;
30934;SDS011;51033;42.648;23.292;2023-03-21T08:13:16;23.83;;;12.02;;
30934;SDS011;51033;42.648;23.292;2023-03-21T08:15:42;18.92;;;12.10;;
30934;SDS011;51033;42.648;23.292;2023-03-21T08:18:08;25.08;;;13.70;;
30934;SDS011;51033;42.648;23.292;2023-03-21T08:20:34;25.42;;;13.48;;
30934;SDS011;51033;42.648;23.292;2023-03-21T08:23:00;27.27;;;15.60;;
30934;SDS011;51033;42.648;23.292;2023-03-21T08:25:25;27.58;;;14.68;;
30934;SDS011;51033;42.648;23.292;2023-03-21T08:27:51;20.42;;;13.23;;
30934;SDS011;51033;42.648;23.292;2023-03-21T08:30:18;25.27;;;14.38;;
30934;SDS011;51033;42.648;23.292;2023-03-21T08:32:45;34.22;;;16.02;;
30934;SDS011;51033;42.648;23.292;2023-03-21T08:35:12;29.05;;;16.30;;
30934;SDS011;51033;42.648;23.292;2023-03-21T08:37:40;29.65;;;17.27;;
30934;SDS011;51033;42.648;23.292;2023-03-21T08:40:07;20.10;;;13.18;;
30934;SDS011;51033;42.648;23.292;2023-03-21T08:42:37;21.05;;;12.35;;
30934;SDS011;51033;42.648;23.292;2023-03-21T08:45:04;21.25;;;12.90;;
30934;SDS011;51033;42.648;23.292;2023-03-21T08:47:30;30.30;;;12.90;;
30934;SDS011;51033;42.648;23.292;2023-03-21T08:49:56;29.77;;;13.50;;
30934;SDS011;51033;42.648;23.292;2023-03-21T08:52:23;19.88;;;14.00;;
30934;SDS011;51033;42.648;23.292;2023-03-21T08:54:49;28.52;;;12.27;;
30934;SDS011;51033;42.648;23.292;2023-03-21T08:57:15;23.98;;;13.65;;
30934;SDS011;51033;42.648;23.292;2023-03-21T08:59:40;28.38;;;14.30;;
30934;SDS011;51033;42.648;23.292;2023-03-21T09:02:06;22.02;;;13.50;;
30934;SDS011;51033;42.648;23.292;2023-03-21T09:04:31;34.78;;;14.30;;
30934;SDS011;51033;42.648;23.292;2023-03-21T09:06:57;29.55;;;14.70;;
30934;SDS011;51033;42.648;23.292;2023-03-21T09:09:25;35.47;;;13.98;;
30934;SDS011;51033;42.648;23.292;2023-03-21T09:11:52;28.02;;;13.68;;
30934;SDS011;51033;42.648;23.292;2023-03-21T09:14:17;24.88;;;12.90;;
30934;SDS011;51033;42.648;23.292;2023-03-21T09:16:43;31.27;;;15.45;;
30934;SDS011;51033;42.648;23.292;2023-03-21T09:19:08;34.15;;;14.50;;
30934;SDS011;51033;42.648;23.292;2023-03-21T09:21:34;20.58;;;14.20;;
30934;SDS011;51033;42.648;23.292;2023-03-21T09:24:00;24.58;;;15.70;;
30934;SDS011;51033;42.648;23.292;2023-03-21T09:26:27;24.05;;;15.75;;
30934;SDS011;51033;42.648;23.292;2023-03-21T09:28:53;27.67;;;14.85;;
30934;SDS011;51033;42.648;23.292;2023-03-21T09:31:19;28.55;;;14.48;;
30934;SDS011;51033;42.648;23.292;2023-03-21T09:33:47;25.30;;;14.48;;
30934;SDS011;51033;42.648;23.292;2023-03-21T09:36:13;30.13;;;15.02;;
30934;SDS011;51033;42.648;23.292;2023-03-21T09:38:41;24.27;;;13.45;;
30934;SDS011;51033;42.648;23.292;2023-03-21T09:44:10;19.20;;;12.80;;
30934;SDS011;51033;42.648;23.292;2023-03-21T09:49:58;27.67;;;14.38;;
30934;SDS011;51033;42.648;23.292;2023-03-21T09:52:31;24.13;;;15.00;;
30934;SDS011;51033;42.648;23.292;2023-03-21T09:55:12;27.15;;;15.18;;
30934;SDS011;51033;42.648;23.292;2023-03-21T09:57:43;22.55;;;13.13;;
30934;SDS011;51033;42.648;23.292;2023-03-21T10:00:12;26.65;;;13.82;;
30934;SDS011;51033;42.648;23.292;2023-03-21T10:02:49;25.42;;;14.02;;
30934;SDS011;51033;42.648;23.292;2023-03-21T10:05:24;28.00;;;15.10;;
30934;SDS011;51033;42.648;23.292;2023-03-21T10:11:09;21.02;;;13.32;;
30934;SDS011;51033;42.648;23.292;2023-03-21T10:13:34;43.95;;;21.65;;
30934;SDS011;51033;42.648;23.292;2023-03-21T10:19:02;23.52;;;13.80;;
30934;SDS011;51033;42.648;23.292;2023-03-21T10:21:34;28.52;;;14.10;;
30934;SDS011;51033;42.648;23.292;2023-03-21T10:24:03;20.20;;;11.60;;
30934;SDS011;51033;42.648;23.292;2023-03-21T10:26:30;31.45;;;13.80;;
30934;SDS011;51033;42.648;23.292;2023-03-21T10:28:59;26.00;;;11.93;;
30934;SDS011;51033;42.648;23.292;2023-03-21T10:31:26;20.50;;;11.55;;
30934;SDS011;51033;42.648;23.292;2023-03-21T10:33:55;17.02;;;10.02;;
30934;SDS011;51033;42.648;23.292;2023-03-21T10:36:26;16.35;;;10.75;;
30934;SDS011;51033;42.648;23.292;2023-03-21T10:39:04;16.77;;;9.52;;
30934;SDS011;51033;42.648;23.292;2023-03-21T10:41:31;20.35;;;10.45;;
30934;SDS011;51033;42.648;23.292;2023-03-21T10:44:13;17.17;;;10.93;;
30934;SDS011;51033;42.648;23.292;2023-03-21T10:46:52;18.52;;;12.30;;
30934;SDS011;51033;42.648;23.292;2023-03-21T10:49:20;19.73;;;12.23;;
30934;SDS011;51033;42.648;23.292;2023-03-21T10:51:48;25.08;;;12.05;;
30934;SDS011;51033;42.648;23.292;2023-03-21T10:54:20;18.30;;;11.45;;
30934;SDS011;51033;42.648;23.292;2023-03-21T10:57:04;16.65;;;11.00;;
30934;SDS011;51033;42.648;23.292;2023-03-21T10:59:34;23.25;;;10.55;;
30934;SDS011;51033;42.648;23.292;2023-03-21T11:02:13;16.77;;;10.63;;
30934;SDS011;51033;42.648;23.292;2023-03-21T11:04:43;20.20;;;11.30;;
30934;SDS011;51033;42.648;23.292;2023-03-21T11:07:11;24.67;;;11.70;;
30934;SDS011;51033;42.648;23.292;2023-03-21T11:09:57;14.15;;;10.40;;
30934;SDS011;51033;42.648;23.292;2023-03-21T11:12:45;17.15;;;11.25;;
30934;SDS011;51033;42.648;23.292;2023-03-21T11:17:56;13.23;;;8.85;;
30934;SDS011;51033;42.648;23.292;2023-03-21T11:20:22;19.08;;;8.85;;
30934;SDS011;51033;42.648;23.292;2023-03-21T11:22:48;14.02;;;8.50;;
30934;SDS011;51033;42.648;23.292;2023-03-21T11:25:21;14.00;;;8.60;;
30934;SDS011;51033;42.648;23.292;2023-03-21T11:28:05;27.30;;;11.23;;
30934;SDS011;51033;42.648;23.292;2023-03-21T11:30:36;15.70;;;10.02;;
30934;SDS011;51033;42.648;23.292;2023-03-21T11:33:12;16.65;;;9.93;;
30934;SDS011;51033;42.648;23.292;2023-03-21T11:35:38;11.30;;;8.23;;
30934;SDS011;51033;42.648;23.292;2023-03-21T11:38:04;12.10;;;7.88;;
30934;SDS011;51033;42.648;23.292;2023-03-21T11:40:32;10.95;;;8.40;;
30934;SDS011;51033;42.648;23.292;2023-03-21T11:43:03;11.60;;;7.30;;
30934;SDS011;51033;42.648;23.292;2023-03-21T11:46:08;16.98;;;8.13;;
30934;SDS011;51033;42.648;23.292;2023-03-21T11:48:44;11.80;;;8.02;;
30934;SDS011;51033;42.648;23.292;2023-03-21T11:56:49;11.35;;;7.68;;
30934;SDS011;51033;42.648;23.292;2023-03-21T11:59:30;24.98;;;8.07;;
30934;SDS011;51033;42.648;23.292;2023-03-21T12:05:02;11.02;;;6.93;;
30934;SDS011;51033;42.648;23.292;2023-03-21T12:13:07;10.02;;;7.57;;
30934;SDS011;51033;42.648;23.292;2023-03-21T12:15:45;14.68;;;7.30;;
30934;SDS011;51033;42.648;23.292;2023-03-21T12:24:00;12.57;;;7.60;;
30934;SDS011;51033;42.648;23.292;2023-03-21T12:30:02;13.00;;;6.78;;
30934;SDS011;51033;42.648;23.292;2023-03-21T12:32:47;7.47;;;6.18;;
30934;SDS011;51033;42.648;23.292;2023-03-21T12:46:03;10.18;;;5.55;;
30934;SDS011;51033;42.648;23.292;2023-03-21T12:51:08;10.38;;;5.85;;
30934;SDS011;51033;42.648;23.292;2023-03-21T12:56:22;9.13;;;5.65;;
30934;SDS011;51033;42.648;23.292;2023-03-21T12:59:07;12.13;;;7.18;;
30934;SDS011;51033;42.648;23.292;2023-03-21T13:01:36;7.20;;;5.15;;
30934;SDS011;51033;42.648;23.292;2023-03-21T13:04:46;11.10;;;5.45;;
30934;SDS011;51033;42.648;23.292;2023-03-21T13:07:00;7.72;;;6.05;;
30934;SDS011;51033;42.648;23.292;2023-03-21T13:09:32;9.25;;;6.53;;
30934;SDS011;51033;42.648;23.292;2023-03-21T13:12:02;7.75;;;5.75;;
30934;SDS011;51033;42.648;23.292;2023-03-21T13:14:43;10.98;;;6.70;;
30934;SDS011;51033;42.648;23.292;2023-03-21T13:17:26;12.50;;;7.00;;
30934;SDS011;51033;42.648;23.292;2023-03-21T13:22:44;11.20;;;7.15;;
30934;SDS011;51033;42.648;23.292;2023-03-21T13:25:22;10.38;;;6.80;;
30934;SDS011;51033;42.648;23.292;2023-03-21T13:27:59;9.20;;;5.50;;
30934;SDS011;51033;42.648;23.292;2023-03-21T13:30:27;14.77;;;7.72;;
30934;SDS011;51033;42.648;23.292;2023-03-21T13:33:06;10.75;;;6.80;;
30934;SDS011;51033;42.648;23.292;2023-03-21T13:35:41;14.18;;;6.75;;
30934;SDS011;51033;42.648;23.292;2023-03-21T13:41:11;10.88;;;6.22;;
30934;SDS011;51033;42.648;23.292;2023-03-21T13:43:44;12.20;;;6.68;;
30934;SDS011;51033;42.648;23.292;2023-03-21T13:51:44;10.40;;;6.50;;
30934;SDS011;51033;42.648;23.292;2023-03-21T13:59:11;9.52;;;6.60;;
30934;SDS011;51033;42.648;23.292;2023-03-21T14:04:05;11.75;;;6.03;;
30934;SDS011;51033;42.648;23.292;2023-03-21T14:06:37;8.20;;;5.75;;
30934;SDS011;51033;42.648;23.292;2023-03-21T14:09:08;9.02;;;6.63;;
30934;SDS011;51033;42.648;23.292;2023-03-21T14:11:42;13.45;;;6.03;;
30934;SDS011;51033;42.648;23.292;2023-03-21T14:14:07;14.13;;;6.78;;
30934;SDS011;51033;42.648;23.292;2023-03-21T14:16:34;10.63;;;6.72;;
30934;SDS011;51033;42.648;23.292;2023-03-21T14:19:01;15.75;;;6.53;;
30934;SDS011;51033;42.648;23.292;2023-03-21T14:21:30;13.38;;;7.18;;
30934;SDS011;51033;42.648;23.292;2023-03-21T14:24:11;11.57;;;6.03;;
30934;SDS011;51033;42.648;23.292;2023-03-21T14:26:43;11.73;;;6.20;;
30934;SDS011;51033;42.648;23.292;2023-03-21T14:29:14;10.93;;;6.28;;
30934;SDS011;51033;42.648;23.292;2023-03-21T14:31:44;12.63;;;7.43;;
30934;SDS011;51033;42.648;23.292;2023-03-21T14:34:11;12.90;;;6.57;;
30934;SDS011;51033;42.648;23.292;2023-03-21T14:36:39;14.55;;;7.13;;
30934;SDS011;51033;42.648;23.292;2023-03-21T14:39:16;13.90;;;7.13;;
30934;SDS011;51033;42.648;23.292;2023-03-21T14:41:51;9.38;;;5.82;;
30934;SDS011;51033;42.648;23.292;2023-03-21T14:44:25;7.88;;;6.15;;
30934;SDS011;51033;42.648;23.292;2023-03-21T14:47:18;12.13;;;7.32;;
30934;SDS011;51033;42.648;23.292;2023-03-21T14:49:46;17.33;;;7.85;;
30934;SDS011;51033;42.648;23.292;2023-03-21T14:52:14;14.07;;;8.20;;
30934;SDS011;51033;42.648;23.292;2023-03-21T14:54:45;11.15;;;7.88;;
30934;SDS011;51033;42.648;23.292;2023-03-21T14:57:18;14.23;;;8.27;;
30934;SDS011;51033;42.648;23.292;2023-03-21T15:02:17;15.35;;;7.63;;
30934;SDS011;51033;42.648;23.292;2023-03-21T15:04:51;17.33;;;9.10;;
30934;SDS011;51033;42.648;23.292;2023-03-21T15:07:29;13.65;;;8.15;;
30934;SDS011;51033;42.648;23.292;2023-03-21T15:09:58;14.20;;;7.30;;
30934;SDS011;51033;42.648;23.292;2023-03-21T15:12:27;14.30;;;7.28;;
30934;SDS011;51033;42.648;23.292;2023-03-21T15:14:53;12.65;;;6.05;;
30934;SDS011;51033;42.648;23.292;2023-03-21T15:17:19;8.30;;;6.05;;
30934;SDS011;51033;42.648;23.292;2023-03-21T15:19:46;8.23;;;6.53;;
30934;SDS011;51033;42.648;23.292;2023-03-21T15:22:14;10.38;;;7.15;;
30934;SDS011;51033;42.648;23.292;2023-03-21T15:24:47;12.52;;;8.98;;
30934;SDS011;51033;42.648;23.292;2023-03-21T15:27:17;10.05;;;7.72;;
30934;SDS011;51033;42.648;23.292;2023-03-21T15:29:44;8.35;;;7.55;;
30934;SDS011;51033;42.648;23.292;2023-03-21T15:32:12;9.50;;;6.82;;
30934;SDS011;51033;42.648;23.292;2023-03-21T15:34:40;9.95;;;6.93;;
30934;SDS011;51033;42.648;23.292;2023-03-21T15:37:07;9.65;;;7.18;;
30934;SDS011;51033;42.648;23.292;2023-03-21T15:39:41;13.53;;;8.83;;
30934;SDS011;51033;42.648;23.292;2023-03-21T15:45:00;11.60;;;8.77;;
30934;SDS011;51033;42.648;23.292;2023-03-21T15:50:28;10.00;;;8.65;;
30934;SDS011;51033;42.648;23.292;2023-03-21T15:53:02;12.25;;;8.63;;
30934;SDS011;51033;42.648;23.292;2023-03-21T15:55:49;13.60;;;8.98;;
30934;SDS011;51033;42.648;23.292;2023-03-21T15:58:18;14.98;;;8.52;;
30934;SDS011;51033;42.648;23.292;2023-03-21T16:00:47;12.43;;;9.73;;
30934;SDS011;51033;42.648;23.292;2023-03-21T16:03:17;11.98;;;8.13;;
30934;SDS011;51033;42.648;23.292;2023-03-21T16:13:46;12.70;;;8.63;;
30934;SDS011;51033;42.648;23.292;2023-03-21T16:16:19;18.30;;;12.10;;
30934;SDS011;51033;42.648;23.292;2023-03-21T16:18:46;15.05;;;11.77;;
30934;SDS011;51033;42.648;23.292;2023-03-21T16:21:16;20.85;;;16.77;;
30934;SDS011;51033;42.648;23.292;2023-03-21T16:23:44;17.40;;;13.80;;
30934;SDS011;51033;42.648;23.292;2023-03-21T16:26:14;18.48;;;13.95;;
30934;SDS011;51033;42.648;23.292;2023-03-21T16:28:42;15.98;;;13.68;;
30934;SDS011;51033;42.648;23.292;2023-03-21T16:31:10;19.23;;;14.88;;
30934;SDS011;51033;42.648;23.292;2023-03-21T16:33:37;18.35;;;15.23;;
30934;SDS011;51033;42.648;23.292;2023-03-21T16:36:03;21.50;;;15.48;;
30934;SDS011;51033;42.648;23.292;2023-03-21T16:38:31;17.75;;;15.18;;
30934;SDS011;51033;42.648;23.292;2023-03-21T16:40:57;23.08;;;15.68;;